Time;durP1;ratioP1;P1;durP2;ratioP2;P2;SDS_P1;SDS_P2;PMS_P1;PMS_P2;Temp;Humidity;BMP_temperature;BMP_pressure;BME280_temperature;BME280_humidity;BME280_pressure;Samples;Min_cycle;Max_cycle;Signal;HPM_P1;HPM_P2
2021/07/10 00:00:24;;;;;;;3.33;1.17;;;;;;;18.14;63.65;101192.91;3704448;22;20037;-80
2021/07/10 00:06:07;;;;;;;3.08;1.35;;;;;;;18.10;63.49;101194.03;3824774;22;20032;-80
2021/07/10 00:11:51;;;;;;;2.97;1.25;;;;;;;18.04;63.30;101199.56;1223053;22;21665;-79
2021/07/10 00:14:43;;;;;;;2.50;1.10;;;;;;;18.01;63.74;101185.66;1221280;22;21519;-80
2021/07/10 00:33:07;;;;;;;2.88;1.20;;;;;;;17.87;65.19;101192.41;1149077;22;20173;-80
2021/07/10 00:48:07;;;;;;;2.80;1.30;;;;;;;17.82;64.78;101182.97;1226779;22;21505;-80
2021/07/10 01:11:38;;;;;;;2.28;1.05;;;;;;;17.45;67.75;101167.88;3778591;22;20033;-80
2021/07/10 01:17:21;;;;;;;2.17;1.25;;;;;;;17.54;66.26;101172.78;1225528;22;21881;-80
2021/07/10 01:23:14;;;;;;;2.78;1.20;;;;;;;17.49;66.16;101170.31;1225836;22;21990;-81
2021/07/10 01:32:01;;;;;;;3.47;1.27;;;;;;;17.43;66.45;101165.28;1222788;22;21573;-81
2021/07/10 02:02:02;;;;;;;4.35;1.48;;;;;;;17.12;67.03;101145.50;1219663;22;21553;-80
2021/07/10 02:25:50;;;;;;;5.13;1.63;;;;;;;16.96;67.55;101135.69;3864019;22;20049;31
2021/07/10 02:28:20;;;;;;;4.72;1.70;;;;;;;16.91;70.17;101135.00;3821773;22;20037;-81
2021/07/10 02:31:19;;;;;;;3.15;1.60;;;;;;;16.94;69.14;101129.63;3826918;22;20040;-80
2021/07/10 02:40:19;;;;;;;7.32;1.65;;;;;;;16.96;68.24;101112.78;1219599;22;21350;-80
2021/07/10 02:43:11;;;;;;;3.80;1.70;;;;;;;16.96;68.23;101107.50;1216063;22;22067;-80
2021/07/10 02:54:43;;;;;;;3.28;1.20;;;;;;;16.83;69.80;101101.06;3834186;22;20060;-80
2021/07/10 02:57:13;;;;;;;3.85;1.60;;;;;;;16.91;69.79;101098.94;3815666;22;20835;-80
2021/07/10 03:02:59;;;;;;;2.65;1.33;;;;;;;16.96;68.32;101096.09;1216767;22;21474;-80
2021/07/10 03:17:20;;;;;;;4.53;1.60;;;;;;;16.99;68.42;101090.72;1221915;22;21532;-80
2021/07/10 03:22:49;;;;;;;4.18;1.42;;;;;;;16.95;69.99;101086.47;3823585;22;20032;-80
2021/07/10 03:25:20;;;;;;;3.00;1.23;;;;;;;16.97;69.55;101082.84;3775668;22;20048;-80
2021/07/10 03:27:52;;;;;;;3.85;1.60;;;;;;;16.79;69.40;101055.47;3752697;22;20085;-80
2021/07/10 03:30:27;;;;;;;2.97;1.27;;;;;;;16.98;69.47;101094.25;3815476;22;20039;-81
2021/07/10 03:33:19;;;;;;;5.18;1.67;;;;;;;16.98;68.50;101094.25;1211022;22;21445;-80
2021/07/10 03:38:52;;;;;;;4.28;1.70;;;;;;;16.96;69.28;101093.47;3733773;22;20032;-80
2021/07/10 03:47:48;;;;;;;3.35;1.40;;;;;;;16.95;69.02;101089.97;3775283;22;20031;-80
2021/07/10 03:50:24;;;;;;;5.45;2.30;;;;;;;16.95;69.27;101089.97;3834588;22;20071;-80
2021/07/10 03:53:02;;;;;;;5.15;2.20;;;;;;;16.93;68.96;101086.56;3824664;22;20043;-80
2021/07/10 04:07:58;;;;;;;11.95;5.05;;;;;;;16.94;68.45;101083.00;1223461;22;21600;-80
2021/07/10 04:10:35;;;;;;;10.55;5.13;;;;;;;16.94;69.08;101083.00;3749155;22;20034;-80
2021/07/10 04:16:28;;;;;;;10.07;4.55;;;;;;;16.99;68.62;101085.44;1230206;22;21446;-81
2021/07/10 04:31:43;;;;;;;9.68;4.75;;;;;;;17.10;69.45;101072.63;3719633;22;20035;-80
2021/07/10 04:39:56;;;;;;;10.65;4.05;;;;;;;17.16;69.26;101082.91;3845733;22;20046;-80
2021/07/10 04:45:38;;;;;;;10.13;3.88;;;;;;;17.21;69.19;101065.09;3736594;22;20032;-80
2021/07/10 04:51:37;;;;;;;7.07;2.95;;;;;;;17.27;68.20;101072.72;3783119;22;20060;-80
2021/07/10 04:56:56;;;;;;;6.60;3.05;;;;;;;17.23;69.08;101062.38;3800026;22;20044;-80
2021/07/10 04:59:33;;;;;;;8.07;3.33;;;;;;;17.32;68.75;101070.72;3766449;22;20106;-80
2021/07/10 05:05:08;;;;;;;6.40;2.85;;;;;;;17.37;68.70;101081.94;3798064;22;20028;31
2021/07/10 05:13:57;;;;;;;5.20;2.13;;;;;;;17.38;68.91;101083.66;3755508;22;20040;-80
2021/07/10 05:16:55;;;;;;;4.50;1.80;;;;;;;17.46;68.58;101091.25;3805344;22;20047;-80
2021/07/10 05:22:48;;;;;;;5.90;1.88;;;;;;;17.51;68.12;101091.03;3837701;22;20047;-80
2021/07/10 05:36:36;;;;;;;3.03;1.37;;;;;;;17.59;68.99;101084.50;3824729;22;21118;-79
2021/07/10 05:39:07;;;;;;;6.32;1.92;;;;;;;17.50;68.65;101058.50;3795096;22;20060;-80
2021/07/10 05:44:36;;;;;;;5.82;2.25;;;;;;;17.71;68.32;101085.69;3773797;22;20038;-80
2021/07/10 05:53:16;;;;;;;4.30;1.55;;;;;;;17.81;67.59;101076.44;3867284;22;20044;-80
2021/07/10 06:05:28;;;;;;;2.88;1.08;;;;;;;17.99;67.33;101069.44;3844851;22;20031;-80
2021/07/10 06:17:13;;;;;;;5.57;1.40;;;;;;;18.14;66.93;101062.56;1226248;22;21493;-79
2021/07/10 06:20:07;;;;;;;2.15;0.95;;;;;;;18.16;66.86;101066.00;3798952;22;20357;-79
2021/07/10 06:25:40;;;;;;;2.33;1.27;;;;;;;18.22;66.35;101065.69;3694958;22;20115;31
2021/07/10 06:28:31;;;;;;;2.97;1.25;;;;;;;18.28;66.26;101065.38;3739294;22;20040;-80
2021/07/10 06:31:24;;;;;;;1.83;1.00;;;;;;;18.32;66.22;101064.31;3831824;22;21264;-79
2021/07/10 06:37:08;;;;;;;2.50;1.10;;;;;;;18.45;65.83;101058.41;3797708;22;20071;-80
2021/07/10 06:40:00;;;;;;;3.75;1.48;;;;;;;18.50;66.15;101059.03;1219964;22;21358;-79
2021/07/10 06:48:16;;;;;;;5.07;1.20;;;;;;;18.58;65.07;101041.84;3718648;22;20039;-79
2021/07/10 06:51:08;;;;;;;2.42;1.08;;;;;;;18.77;65.31;101055.03;3681924;22;20068;-80
2021/07/10 06:56:31;;;;;;;2.47;1.27;;;;;;;18.89;64.85;101053.53;3768371;22;20042;-80
2021/07/10 06:58:58;;;;;;;2.13;1.10;;;;;;;18.87;64.02;101042.19;3600467;39;20016;-80
2021/07/10 07:04:53;;;;;;;2.58;1.13;;;;;;;19.08;64.37;101046.34;724056;22;21541;-80
2021/07/10 07:12:48;;;;;;;;;;;;;;;19.26;64.50;101047.19;3609743;39;20059;-80
2021/07/10 07:15:16;;;;;;;1.92;1.00;;;;;;;19.26;63.25;101039.25;3569659;39;19984;-81
2021/07/10 07:17:48;;;;;;;3.28;1.27;;;;;;;19.25;63.38;101031.38;3570426;39;20120;-81
2021/07/10 07:20:16;;;;;;;3.13;1.30;;;;;;;19.26;63.34;101028.66;3553591;40;20754;-80
2021/07/10 07:22:49;;;;;;;2.70;1.00;;;;;;;19.45;63.28;101045.25;3565566;39;20056;-80
2021/07/10 07:25:19;;;;;;;2.28;0.95;;;;;;;19.46;63.21;101040.78;3604429;22;20063;-81
2021/07/10 07:27:51;;;;;;;4.50;1.27;;;;;;;19.48;62.65;101038.09;3582391;39;20377;-80
2021/07/10 07:30:19;;;;;;;1.92;1.10;;;;;;;19.60;62.10;101059.47;3597935;39;20071;-80
2021/07/10 07:32:50;;;;;;;2.53;1.10;;;;;;;19.72;62.32;101051.78;3596326;39;20020;-81
2021/07/10 07:35:20;;;;;;;2.47;1.20;;;;;;;19.82;62.10;101064.47;3618272;39;20031;-81
2021/07/10 07:40:29;;;;;;;2.58;1.23;;;;;;;19.92;61.38;101055.06;3635353;39;20791;-81
2021/07/10 07:42:58;;;;;;;3.10;1.38;;;;;;;19.82;61.29;101021.19;3581587;39;20578;-81
2021/07/10 07:48:28;;;;;;;4.65;2.20;;;;;;;20.16;61.53;101050.16;3573586;40;20030;-81
2021/07/10 07:51:49;;;;;;;5.95;2.28;;;;;;;20.31;62.10;101056.38;3563303;40;20096;-80
2021/07/10 07:54:20;;;;;;;7.22;3.20;;;;;;;20.39;60.69;101054.16;3530816;40;20061;-80
2021/07/10 07:59:34;;;;;;;9.65;3.83;;;;;;;20.45;60.21;101032.56;3582287;39;20432;-81
2021/07/10 08:02:01;;;;;;;8.55;3.22;;;;;;;20.67;60.34;101053.41;3564061;39;21353;-81
2021/07/10 08:04:28;;;;;;;7.53;3.20;;;;;;;20.67;60.04;101031.31;3559060;39;20059;-81
2021/07/10 08:07:00;;;;;;;7.90;3.00;;;;;;;20.90;58.89;101044.09;3581243;40;20056;-81
2021/07/10 08:09:33;;;;;;;4.75;2.05;;;;;;;20.97;59.06;101042.75;3552069;40;20051;-81
2021/07/10 08:12:00;;;;;;;6.50;2.83;;;;;;;21.05;57.81;101052.06;3552032;40;20044;-80
2021/07/10 08:14:28;;;;;;;5.72;2.65;;;;;;;20.97;58.80;101037.44;3571750;40;20051;-80
2021/07/10 08:16:56;;;;;;;6.03;2.65;;;;;;;21.09;57.88;101046.47;3595899;39;20689;-80
2021/07/10 08:19:30;;;;;;;5.50;2.38;;;;;;;21.18;58.59;101059.16;3582610;40;20036;-80
2021/07/10 08:21:59;;;;;;;7.55;1.95;;;;;;;21.15;58.42;101056.72;3555335;40;21225;-80
2021/07/10 08:24:26;;;;;;;5.20;1.70;;;;;;;21.05;57.17;101036.13;3590936;40;20119;-81
2021/07/10 08:26:52;;;;;;;5.88;1.67;;;;;;;21.05;57.75;101041.44;3579740;39;20053;-81
2021/07/10 08:29:20;;;;;;;3.13;1.35;;;;;;;21.11;57.69;101049.03;3555863;39;20072;-80
2021/07/10 08:31:50;;;;;;;2.00;1.05;;;;;;;21.12;58.60;101045.44;3579899;39;20116;-81
2021/07/10 08:34:18;;;;;;;2.38;1.10;;;;;;;21.08;57.73;101030.63;3598148;39;20051;-81
2021/07/10 08:36:51;;;;;;;2.10;1.10;;;;;;;21.25;58.11;101047.25;3605761;39;20051;-80
2021/07/10 08:39:19;;;;;;;2.25;0.98;;;;;;;21.14;58.06;101030.28;3572898;39;20050;-81
2021/07/10 08:41:52;;;;;;;1.65;1.00;;;;;;;21.17;57.82;101014.13;3572540;39;20072;-81
2021/07/10 08:44:19;;;;;;;1.70;1.02;;;;;;;21.24;57.45;101021.63;3581496;39;20091;-80
2021/07/10 08:46:52;;;;;;;2.80;1.33;;;;;;;21.47;57.89;101041.47;3575066;39;20126;-81
2021/07/10 08:49:25;;;;;;;2.58;1.30;;;;;;;21.48;57.68;101037.84;3536569;39;20101;-81
2021/07/10 08:51:52;;;;;;;3.65;1.40;;;;;;;21.50;57.21;101032.47;3581056;40;20156;-81
2021/07/10 08:54:19;;;;;;;2.85;1.50;;;;;;;21.61;56.41;101039.75;3598883;39;20055;-81
2021/07/10 08:56:48;;;;;;;2.53;1.20;;;;;;;21.70;56.54;101028.53;3606123;39;20136;-80
2021/07/10 08:59:17;;;;;;;3.38;1.30;;;;;;;21.57;56.27;101007.19;3568796;39;20045;-81
2021/07/10 09:01:44;;;;;;;5.32;1.50;;;;;;;21.78;55.98;101036.88;3536878;40;20056;-81
2021/07/10 09:04:13;;;;;;;3.08;1.25;;;;;;;21.75;55.80;101015.81;3592869;39;20051;-81
2021/07/10 09:06:41;;;;;;;3.20;1.38;;;;;;;21.99;55.61;101040.78;3599532;40;20088;-81
2021/07/10 09:09:14;;;;;;;2.38;1.08;;;;;;;22.10;56.12;101039.22;3544093;40;20170;-81
2021/07/10 09:11:58;;;;;;;2.85;1.35;;;;;;;22.20;56.18;101038.59;3552429;40;20061;-81
2021/07/10 09:14:33;;;;;;;3.42;1.20;;;;;;;22.21;54.98;101042.94;3567477;40;20049;-80
2021/07/10 09:17:19;;;;;;;1.98;0.95;;;;;;;22.30;55.76;101041.47;3579849;40;20051;-80
2021/07/10 09:19:54;;;;;;;2.35;1.17;;;;;;;22.31;54.44;101037.88;3578177;40;20415;-80
2021/07/10 09:22:28;;;;;;;3.70;1.30;;;;;;;22.37;55.53;101040.13;3574839;40;20371;-80
2021/07/10 09:25:23;;;;;;;3.17;1.30;;;;;;;22.51;55.55;101036.53;3584257;40;20573;-80
2021/07/10 09:27:55;;;;;;;2.28;1.30;;;;;;;22.59;53.91;101036.00;3585968;40;20060;-80
2021/07/10 09:42:59;;;;;;;2.00;1.10;;;;;;;23.36;53.94;101034.25;1220391;22;21435;-80
2021/07/10 09:45:38;;;;;;;2.42;1.10;;;;;;;23.49;52.39;101035.09;1211678;22;20187;-79
2021/07/10 09:48:11;;;;;;;1.50;0.90;;;;;;;23.68;51.78;101024.84;3571164;40;20119;-80
2021/07/10 09:50:49;;;;;;;1.83;1.05;;;;;;;24.05;51.63;101024.78;3533172;40;20069;-80
2021/07/10 09:53:23;;;;;;;2.28;1.13;;;;;;;24.32;49.56;101019.19;3525903;40;20087;-80
2021/07/10 09:56:08;;;;;;;2.42;1.00;;;;;;;24.79;51.58;101020.13;3510295;40;20627;-80
2021/07/10 09:58:40;;;;;;;1.65;1.00;;;;;;;24.99;48.14;101022.09;3568072;40;21835;-81
2021/07/10 10:01:28;;;;;;;2.53;1.10;;;;;;;25.40;49.74;101031.38;3542522;40;20042;-81
2021/07/10 10:03:55;;;;;;;1.50;0.90;;;;;;;25.49;46.77;101030.59;3540490;40;20046;-81
2021/07/10 10:06:30;;;;;;;3.10;1.23;;;;;;;25.78;47.55;101032.78;3559236;40;20061;-81
2021/07/10 10:09:00;;;;;;;1.20;0.88;;;;;;;25.80;46.06;101014.78;3562562;39;20111;-81
2021/07/10 10:11:57;;;;;;;2.88;1.15;;;;;;;26.18;48.26;101042.91;3559374;40;20053;-81
2021/07/10 10:14:27;;;;;;;2.92;1.80;;;;;;;26.20;44.27;101019.53;3549509;40;20081;-81
2021/07/10 10:17:00;;;;;;;2.15;1.33;;;;;;;26.46;45.65;101031.63;3551221;40;20057;-81
2021/07/10 10:19:31;;;;;;;1.83;0.90;;;;;;;26.61;44.51;101046.41;3545426;40;20073;-81
2021/07/10 10:22:04;;;;;;;2.33;1.10;;;;;;;26.71;44.51;101040.25;3552136;40;20748;-81
2021/07/10 10:24:32;;;;;;;2.50;1.20;;;;;;;26.64;43.14;101016.66;3558467;40;20045;-80
2021/07/10 10:27:00;;;;;;;2.15;1.17;;;;;;;26.80;42.50;101036.78;3580700;40;20576;-80
2021/07/10 10:29:35;;;;;;;3.60;1.50;;;;;;;26.86;44.64;101041.59;3539335;40;20400;-81
2021/07/10 10:32:06;;;;;;;2.72;1.38;;;;;;;26.75;43.93;101036.31;3531582;40;21147;-82
2021/07/10 10:34:37;;;;;;;2.75;1.45;;;;;;;26.70;43.95;101030.50;3537529;40;20064;-81
2021/07/10 10:37:08;;;;;;;1.77;1.00;;;;;;;26.57;43.54;101012.81;3581162;40;20037;-82
2021/07/10 10:39:36;;;;;;;2.53;1.23;;;;;;;26.55;43.00;101005.88;3541984;40;20104;-81
2021/07/10 10:42:21;;;;;;;3.13;1.63;;;;;;;26.77;44.35;101034.38;3567868;40;20548;-81
2021/07/10 10:44:55;;;;;;;2.97;1.40;;;;;;;26.69;44.16;100996.66;3561856;40;20053;-81
2021/07/10 10:47:23;;;;;;;2.67;1.23;;;;;;;26.97;42.25;101017.44;3564952;40;20041;-81
2021/07/10 10:50:42;;;;;;;3.20;1.67;;;;;;;27.36;45.29;101017.63;3575862;40;20069;-81
2021/07/10 10:53:21;;;;;;;2.83;1.40;;;;;;;27.62;44.10;101024.19;3567236;40;20049;-81
2021/07/10 10:55:48;;;;;;;2.40;1.30;;;;;;;27.69;41.01;101000.34;3566626;40;20072;-81
2021/07/10 10:58:30;;;;;;;4.72;1.70;;;;;;;28.08;42.17;101014.72;3567269;40;20057;-81
2021/07/10 11:00:59;;;;;;;4.65;1.60;;;;;;;28.28;41.05;101006.63;3573512;40;22575;-81
2021/07/10 11:03:42;;;;;;;4.13;1.70;;;;;;;28.62;42.92;101007.91;3571953;40;20124;-81
2021/07/10 11:06:30;;;;;;;2.65;1.50;;;;;;;28.81;42.94;101006.19;3568941;40;20058;-82
2021/07/10 11:08:58;;;;;;;5.57;2.22;;;;;;;28.75;38.96;101001.41;3565760;40;20054;-81
2021/07/10 11:11:35;;;;;;;3.78;1.88;;;;;;;28.76;41.66;100982.44;3570000;40;20849;-81
2021/07/10 11:14:11;;;;;;;3.90;1.80;;;;;;;28.94;40.88;100979.84;3570109;40;20336;-81
2021/07/10 11:17:03;;;;;;;4.38;1.90;;;;;;;29.18;42.27;100993.63;3566302;40;20079;-82
2021/07/10 11:19:57;;;;;;;4.40;1.73;;;;;;;29.40;42.29;100986.13;3564867;40;20480;-82
2021/07/10 11:22:51;;;;;;;4.75;1.98;;;;;;;29.67;41.98;100998.78;3568517;40;20077;-81
2021/07/10 11:25:58;;;;;;;5.78;2.20;;;;;;;30.10;42.22;100995.31;3569394;40;20061;-82
2021/07/10 11:28:32;;;;;;;3.15;1.73;;;;;;;30.46;39.21;100990.81;3526035;40;20525;-81
2021/07/10 11:31:05;;;;;;;3.88;1.90;;;;;;;30.80;38.87;100986.50;3561806;40;20081;-82
2021/07/10 11:34:05;;;;;;;3.67;2.03;;;;;;;31.21;39.94;100974.91;3551941;40;20324;-81
2021/07/10 11:36:36;;;;;;;4.15;2.00;;;;;;;31.46;37.14;100978.56;3567915;40;20093;-82
2021/07/10 11:39:24;;;;;;;3.60;1.75;;;;;;;31.84;39.27;100962.00;3558963;40;20522;-81
2021/07/10 11:42:00;;;;;;;5.68;2.17;;;;;;;32.15;35.83;100968.41;3562177;40;20457;-82
2021/07/10 11:44:30;;;;;;;4.47;2.40;;;;;;;32.29;34.28;100980.41;3565769;40;20061;-81
2021/07/10 11:46:56;;;;;;;5.25;2.28;;;;;;;32.32;32.79;100973.81;3582102;40;20056;-81
2021/07/10 11:49:41;;;;;;;;;;;;;;;32.72;39.38;100971.06;3577377;40;21488;-82
2021/07/10 11:52:17;;;;;;;3.95;1.88;;;;;;;32.95;34.66;100973.06;3557191;40;20312;-82
2021/07/10 11:54:54;;;;;;;4.70;2.17;;;;;;;33.30;36.46;100975.31;3565308;40;20053;-82
2021/07/10 11:57:24;;;;;;;2.80;1.73;;;;;;;33.45;33.38;100978.13;3566628;40;20065;-82
2021/07/10 11:59:54;;;;;;;4.50;1.85;;;;;;;33.52;33.37;100973.69;3563486;40;20065;-82
2021/07/10 12:02:28;;;;;;;4.47;1.95;;;;;;;33.77;33.04;100982.50;3568983;40;20289;-82
2021/07/10 12:05:01;;;;;;;4.43;2.08;;;;;;;34.13;32.53;100981.94;3553062;40;20107;-82
2021/07/10 12:07:49;;;;;;;3.33;1.90;;;;;;;34.56;33.82;100983.09;3571101;40;20065;-82
2021/07/10 12:10:23;;;;;;;5.22;2.10;;;;;;;34.78;32.05;100962.38;3561484;40;20069;-81
2021/07/10 12:13:10;;;;;;;3.50;1.90;;;;;;;35.07;33.62;100963.38;3569242;40;20344;-82
2021/07/10 12:15:43;;;;;;;4.72;2.40;;;;;;;34.99;30.99;100950.78;3549189;40;20055;-82
2021/07/10 12:18:18;;;;;;;4.40;2.20;;;;;;;35.02;31.43;100957.69;3565006;40;20728;-82
2021/07/10 12:20:53;;;;;;;3.15;1.67;;;;;;;34.97;29.95;100952.81;3552207;40;20063;-82
2021/07/10 12:23:31;;;;;;;3.15;1.80;;;;;;;35.02;32.06;100935.97;3552037;40;20057;-82
2021/07/10 12:26:06;;;;;;;3.20;1.60;;;;;;;35.05;31.84;100971.72;3546840;40;20879;-82
2021/07/10 12:28:56;;;;;;;3.40;1.75;;;;;;;35.21;33.15;100965.25;3546123;40;20071;-82
2021/07/10 12:31:34;;;;;;;2.83;1.60;;;;;;;35.45;31.46;100968.72;3551341;40;20057;-81
2021/07/10 12:34:12;;;;;;;5.25;1.73;;;;;;;35.68;31.13;100972.09;3561863;40;20097;-82
2021/07/10 12:36:45;;;;;;;3.10;1.70;;;;;;;35.88;30.94;100967.69;3567357;40;20086;-82
2021/07/10 12:39:20;;;;;;;4.53;1.95;;;;;;;36.02;29.77;100952.41;3556545;40;20317;-82
2021/07/10 12:41:51;;;;;;;4.03;2.08;;;;;;;36.35;29.70;100974.44;3546454;40;20414;-81
2021/07/10 12:44:33;;;;;;;5.00;2.30;;;;;;;36.64;30.32;100967.13;3552106;40;20054;-81
2021/07/10 12:47:03;;;;;;;7.68;2.88;;;;;;;36.67;26.60;100966.75;3564075;40;20177;-82
2021/07/10 12:49:56;;;;;;;5.25;2.80;;;;;;;36.86;30.66;100966.03;3561929;40;20400;-82
2021/07/10 12:52:35;;;;;;;5.90;2.55;;;;;;;36.90;29.28;100971.91;3555541;40;20057;-81
2021/07/10 12:55:15;;;;;;;5.82;2.75;;;;;;;36.92;28.81;100961.69;3553568;40;20057;-82
2021/07/10 12:57:51;;;;;;;4.95;2.80;;;;;;;36.82;27.43;100958.47;3560708;40;20057;-82
2021/07/10 13:00:29;;;;;;;5.20;2.65;;;;;;;36.84;28.84;100959.91;3556671;40;20414;-82
2021/07/10 13:03:03;;;;;;;5.57;3.08;;;;;;;36.66;27.34;100954.19;3560833;40;20158;-82
2021/07/10 13:05:47;;;;;;;5.47;2.70;;;;;;;36.66;29.05;100959.63;3560954;40;20079;-82
2021/07/10 13:08:23;;;;;;;5.82;2.50;;;;;;;36.50;29.02;100959.91;3548159;40;20057;-81
2021/07/10 13:10:58;;;;;;;5.68;2.65;;;;;;;36.42;29.01;100968.25;3563112;40;20067;-82
2021/07/10 13:13:34;;;;;;;6.05;2.85;;;;;;;36.45;28.66;100967.81;3561847;40;20057;-81
2021/07/10 13:16:07;;;;;;;6.85;2.60;;;;;;;36.56;28.85;100959.13;3557518;40;20399;-82
2021/07/10 13:18:56;;;;;;;6.25;2.65;;;;;;;36.77;30.44;100959.06;3543056;40;20825;-81
2021/07/10 13:21:28;;;;;;;5.72;3.10;;;;;;;36.79;26.28;100959.69;3547398;40;20073;-82
2021/07/10 13:23:57;;;;;;;7.55;3.70;;;;;;;36.98;26.80;100962.75;3563460;40;20066;-82
2021/07/10 13:26:25;;;;;;;6.95;3.88;;;;;;;37.07;26.44;100967.00;3561965;40;20385;-82
2021/07/10 13:29:18;;;;;;;7.57;3.90;;;;;;;37.16;28.28;100960.34;3568546;40;20069;-82
2021/07/10 13:31:46;;;;;;;6.75;3.58;;;;;;;36.91;26.14;100965.44;3571151;40;20134;-81
2021/07/10 13:34:18;;;;;;;7.65;4.35;;;;;;;36.72;26.43;100958.81;3566080;40;20115;-81
2021/07/10 13:36:50;;;;;;;6.70;3.38;;;;;;;36.53;27.04;100970.41;3571942;40;20060;-82
2021/07/10 13:39:26;;;;;;;6.55;3.53;;;;;;;36.23;27.99;100969.72;3569014;40;20069;-81
2021/07/10 13:41:57;;;;;;;8.27;4.38;;;;;;;35.78;26.67;100960.91;3564397;40;20067;-81
2021/07/10 13:44:32;;;;;;;6.75;3.78;;;;;;;35.45;28.44;100960.56;3566721;40;20088;-81
2021/07/10 13:47:01;;;;;;;6.05;3.08;;;;;;;34.99;28.28;100958.94;3562129;40;20056;-81
2021/07/10 13:49:32;;;;;;;6.65;3.10;;;;;;;34.70;28.94;100954.31;3561545;40;20437;-73
2021/07/10 13:52:22;;;;;;;5.78;3.38;;;;;;;34.31;29.34;100960.75;3554963;40;20144;-73
2021/07/10 13:54:55;;;;;;;8.48;3.55;;;;;;;33.92;30.67;100968.19;3549248;40;20787;-73
2021/07/10 13:57:40;;;;;;;7.18;3.65;;;;;;;33.49;30.08;100959.66;3546061;40;20065;-73
2021/07/10 14:00:29;;;;;;;6.97;3.75;;;;;;;33.12;30.62;100955.75;3548825;40;20469;-73
2021/07/10 14:02:59;;;;;;;8.20;3.70;;;;;;;32.68;30.58;100953.50;3552175;40;20083;-73
2021/07/10 14:05:35;;;;;;;7.05;3.83;;;;;;;32.37;31.81;100952.56;3551086;40;20041;-73
2021/07/10 14:08:07;;;;;;;9.80;5.32;;;;;;;32.01;32.34;100952.88;3555256;40;20067;-73
2021/07/10 14:10:39;;;;;;;10.63;5.93;;;;;;;31.61;32.41;100951.78;3557623;40;20093;-73
2021/07/10 14:13:14;;;;;;;10.30;5.82;;;;;;;31.25;33.34;100951.13;3557471;40;20065;-73
2021/07/10 14:15:44;;;;;;;13.00;7.03;;;;;;;30.88;33.39;100952.34;3553439;40;20623;-73
2021/07/10 14:18:11;;;;;;;10.45;6.07;;;;;;;30.48;34.22;100947.50;3557653;40;20362;-73
2021/07/10 14:20:39;;;;;;;11.13;6.10;;;;;;;30.11;34.59;100956.63;3550774;40;20058;-73
2021/07/10 14:23:25;;;;;;;12.75;6.65;;;;;;;29.75;35.27;100947.69;3564328;40;20150;-73
2021/07/10 14:25:53;;;;;;;11.98;6.30;;;;;;;29.37;35.91;100943.41;3558761;40;20053;-73
2021/07/10 14:28:20;;;;;;;11.65;6.57;;;;;;;29.04;36.36;100940.31;3547819;40;20077;-73
2021/07/10 14:30:47;;;;;;;;;;;;;;;28.79;36.18;100938.25;3563064;40;20144;-73
2021/07/10 14:33:15;;;;;;;10.25;5.88;;;;;;;28.42;37.88;100931.03;3559065;40;19937;-72
2021/07/10 14:35:42;;;;;;;10.77;5.32;;;;;;;28.15;38.18;100935.28;3559576;40;20053;-73
2021/07/10 14:38:09;;;;;;;11.88;6.22;;;;;;;27.91;38.47;100929.50;3560712;40;20065;-73
2021/07/10 14:40:37;;;;;;;11.88;5.85;;;;;;;27.77;38.88;100935.28;3563530;40;20101;-73
2021/07/10 14:43:05;;;;;;;10.90;6.00;;;;;;;27.62;39.06;100932.97;3549225;40;20070;-73
2021/07/10 14:45:32;;;;;;;9.75;5.18;;;;;;;27.48;39.66;100930.72;3556377;40;20060;-73
2021/07/10 14:47:59;;;;;;;9.75;4.68;;;;;;;27.38;40.15;100937.88;3552686;40;20057;-73
2021/07/10 14:50:27;;;;;;;;;;;;;;;27.30;39.07;100933.19;3560441;40;20079;-73
2021/07/10 14:52:54;;;;;;;9.35;4.72;;;;;;;27.13;40.78;100942.75;3547456;40;19948;-73
2021/07/10 14:55:21;;;;;;;9.38;4.03;;;;;;;27.00;40.83;100936.75;3561668;40;20048;-73
2021/07/10 14:57:49;;;;;;;9.45;4.47;;;;;;;26.93;41.12;100940.97;3554860;40;21733;-73
2021/07/10 15:00:22;;;;;;;11.23;4.80;;;;;;;26.86;41.11;100934.41;3552724;40;20097;-73
2021/07/10 15:02:50;;;;;;;11.05;5.45;;;;;;;26.75;40.74;100921.13;3557703;40;20058;-73
2021/07/10 15:05:17;;;;;;;10.13;5.32;;;;;;;26.59;40.55;100921.59;3550890;40;20292;-73
2021/07/10 15:07:44;;;;;;;;;;;;;;;26.50;40.33;100927.75;3555664;40;20097;-72
2021/07/10 15:10:13;;;;;;;10.52;5.80;;;;;;;26.32;41.05;100930.16;3559754;40;20023;-72
2021/07/10 15:12:41;;;;;;;11.15;5.75;;;;;;;26.17;41.45;100934.16;3558600;40;20049;-73
2021/07/10 15:15:09;;;;;;;14.05;7.05;;;;;;;26.02;41.19;100929.09;3538961;40;20057;-73
2021/07/10 15:17:37;;;;;;;15.43;8.02;;;;;;;25.87;41.13;100927.69;3559722;40;20061;-73
2021/07/10 15:20:11;;;;;;;13.85;7.53;;;;;;;25.73;41.43;100927.97;3560532;40;20081;-73
2021/07/10 15:22:41;;;;;;;15.15;7.45;;;;;;;25.52;41.91;100918.06;3558728;40;20073;-73
2021/07/10 15:25:23;;;;;;;12.70;7.03;;;;;;;25.44;41.66;100920.50;3560522;40;20057;-73
2021/07/10 15:27:50;;;;;;;11.70;6.45;;;;;;;25.32;42.64;100918.84;3551574;40;20437;-73
2021/07/10 15:30:19;;;;;;;8.80;4.25;;;;;;;25.30;42.01;100921.66;3563801;40;20456;-73
2021/07/10 15:32:47;;;;;;;8.82;4.35;;;;;;;25.26;42.69;100914.84;3556752;40;20046;-73
2021/07/10 15:35:18;;;;;;;6.43;2.92;;;;;;;25.26;42.79;100914.84;3562729;40;20428;-73
2021/07/10 15:37:47;;;;;;;7.55;2.90;;;;;;;25.27;42.22;100915.69;3559127;40;20069;-73
2021/07/10 15:40:15;;;;;;;6.78;2.15;;;;;;;25.29;42.36;100916.41;3569341;40;20072;-72
2021/07/10 15:42:43;;;;;;;2.67;1.45;;;;;;;25.29;42.01;100919.06;3561023;40;20097;-72
2021/07/10 15:45:11;;;;;;;3.55;1.48;;;;;;;25.30;42.30;100910.09;3560968;40;20121;-73
2021/07/10 15:47:38;;;;;;;3.13;1.38;;;;;;;25.32;42.63;100914.34;3568535;40;20053;-72
2021/07/10 15:50:08;;;;;;;2.70;1.33;;;;;;;25.40;43.71;100911.06;3567059;40;20060;-73
2021/07/10 15:52:36;;;;;;;2.00;1.00;;;;;;;25.48;42.49;100907.75;3560905;40;20147;-73
2021/07/10 15:55:07;;;;;;;3.60;1.50;;;;;;;25.59;42.01;100913.03;3564857;40;20069;-73
2021/07/10 15:57:35;;;;;;;2.92;1.10;;;;;;;25.64;42.27;100913.53;3564911;40;20088;-73
2021/07/10 16:00:06;;;;;;;2.53;1.27;;;;;;;25.67;41.66;100907.94;3562927;40;20060;-73
2021/07/10 16:02:34;;;;;;;2.42;1.10;;;;;;;25.70;42.67;100906.81;3555227;40;20076;-73
2021/07/10 16:05:00;;;;;;;2.85;1.30;;;;;;;25.80;41.88;100891.72;3552061;40;20076;-73
2021/07/10 16:07:27;;;;;;;2.10;1.13;;;;;;;25.85;42.50;100890.38;3553078;40;20096;-73
2021/07/10 16:09:54;;;;;;;3.13;1.15;;;;;;;25.90;41.67;100892.66;3556510;40;20037;-73
2021/07/10 16:12:21;;;;;;;1.80;1.02;;;;;;;25.90;41.89;100884.63;3547131;40;20323;-73
2021/07/10 16:14:48;;;;;;;2.00;1.00;;;;;;;25.93;41.22;100889.72;3563760;40;20054;-73
2021/07/10 16:17:15;;;;;;;2.60;1.17;;;;;;;25.98;41.34;100889.34;3553002;40;20160;-73
2021/07/10 16:19:41;;;;;;;1.58;0.93;;;;;;;25.96;41.55;100880.59;3565251;40;20151;-72
2021/07/10 16:22:08;;;;;;;1.83;1.10;;;;;;;25.93;41.03;100881.69;3551741;40;20061;-73
2021/07/10 16:24:37;;;;;;;1.95;1.17;;;;;;;25.91;41.60;100878.31;3552406;40;20319;-73
2021/07/10 16:27:05;;;;;;;2.33;0.93;;;;;;;25.92;41.68;100885.34;3560573;40;20742;-73
2021/07/10 16:29:32;;;;;;;1.90;0.93;;;;;;;25.92;41.71;100880.00;3559653;40;20064;-73
2021/07/10 16:31:59;;;;;;;5.20;1.65;;;;;;;25.92;41.79;100871.97;3554628;40;20395;-73
2021/07/10 16:34:26;;;;;;;5.30;2.40;;;;;;;25.93;40.80;100865.66;3559481;40;20045;-72
2021/07/10 16:36:53;;;;;;;4.43;1.95;;;;;;;25.95;40.75;100868.19;3555922;40;20061;-73
2021/07/10 16:39:20;;;;;;;3.53;1.60;;;;;;;25.91;41.82;100862.25;3557543;40;20066;-73
2021/07/10 16:41:46;;;;;;;3.40;1.40;;;;;;;25.87;41.26;100861.66;3561579;40;20041;-73
2021/07/10 16:44:14;;;;;;;2.85;1.17;;;;;;;25.85;42.05;100854.72;3553983;40;20738;-72
2021/07/10 16:46:41;;;;;;;2.58;1.30;;;;;;;25.81;41.90;100858.66;3553030;40;20053;-73
2021/07/10 16:49:08;;;;;;;;;;;;;;;25.93;42.49;100857.63;3551942;40;20061;-73
2021/07/10 16:51:35;;;;;;;4.82;2.08;;;;;;;25.95;41.36;100858.31;3556141;40;19947;-73
2021/07/10 16:54:02;;;;;;;6.10;3.00;;;;;;;26.03;40.80;100855.84;3553206;40;20095;-73
2021/07/10 16:56:37;;;;;;;2.80;1.57;;;;;;;26.09;41.22;100860.69;1119582;40;10022879;-72